Latest Weather Observations for Low Isles

IDQ60801

Issued at 10:35 pm EST Wednesday 23 April 2014 (issued every 30 minutes, with the page automatically refreshed every 10 minutes)

About weather observations | Map of weather stations | Latest weather observations for QLD | Other Formats
Station Details ID: 031037 Name: LOW ISLES LIGHTHOUSE Lat: -16.38 Lon: 145.56 Height: 2.9 m
Data from the previous 72 hours. | See also: Recent months at Low Isles
Date/Time
EST
Temp
°C
App
Temp
°C
Dew
Point
Rel
Hum
%
Delta-T
°C
Wind Press
QNH
hPa
Press
MSL
hPa
Rain
since 9 am
mm
Dir
 
Spd
km/h
Gust
km/h
Spd
kts
Gust
kts
23/10:30pm 26.3 26.6 23.6 85 1.8 SSE 28 32 15 17 1012.7 - 0.0
23/10:00pm 26.4 26.6 23.5 84 2.0 SSE 28 32 15 17 1012.6 - 0.0
23/09:30pm 26.3 26.6 23.0 82 2.2 SSE 26 30 14 16 1012.5 - 0.0
23/09:00pm 26.4 25.8 23.3 83 2.1 SSE 32 35 17 19 1012.3 1012.2 0.0
23/08:30pm 26.3 25.2 23.4 84 2.0 SSE 35 41 19 22 1012.1 - 0.0
23/08:00pm 26.6 25.4 23.9 85 1.9 SSE 37 43 20 23 1011.7 - 0.0
23/07:30pm 26.5 25.1 23.6 84 2.0 SE 37 46 20 25 1011.2 - 0.0
23/07:00pm 26.7 25.8 23.8 84 2.0 SE 35 43 19 23 1011.0 - 0.0
23/06:30pm 26.4 25.3 23.5 84 2.0 SE 35 41 19 22 1010.8 - 0.0
23/06:00pm 26.6 25.0 23.9 85 1.9 SE 39 44 21 24 1010.6 1010.5 0.0
23/05:30pm 26.6 25.7 23.9 85 1.9 SE 35 39 19 21 1010.6 - 0.0
23/05:00pm 26.8 26.5 23.9 84 2.0 SE 32 35 17 19 1010.4 - 0.0
23/04:30pm 27.1 27.5 24.4 85 1.9 SE 30 35 16 19 1010.2 - 0.0
23/04:00pm 27.0 26.7 23.9 83 2.1 SE 32 37 17 20 1010.2 - 0.0
23/03:30pm 27.3 26.7 23.7 81 2.5 SE 33 39 18 21 1010.3 - 0.0
23/03:00pm 27.6 27.6 23.8 80 2.6 SSE 30 35 16 19 1010.4 1010.3 0.0
23/02:30pm 28.0 28.3 24.2 80 2.6 SSE 30 32 16 17 1010.4 - 0.0
23/02:00pm 28.2 28.6 24.4 80 2.6 SSE 30 32 16 17 1010.7 - 0.0
23/01:30pm 27.4 27.2 24.0 82 2.3 SE 32 39 17 21 1011.0 - 0.0
23/01:00pm 27.1 26.3 24.0 83 2.1 SSE 35 39 19 21 1011.3 - 0.0
23/12:30pm 27.3 26.9 24.7 86 1.8 SE 35 43 19 23 1011.7 - 0.0
23/12:00pm 26.1 24.6 24.1 89 1.4 SE 39 43 21 23 1012.1 1012.0 0.0
23/11:30am 27.3 27.2 24.2 83 2.1 SSE 32 39 17 21 1012.6 - 0.0
23/11:00am 27.0 27.2 24.1 84 2.0 SSE 30 33 16 18 1012.9 - 0.0
23/10:30am 26.7 27.2 24.0 85 1.9 SSE 28 32 15 17 1013.2 - 0.0
23/10:00am 26.4 26.0 23.7 85 1.9 SSE 32 37 17 20 1013.3 - 0.0
23/09:30am 26.6 26.8 24.1 86 1.7 SSE 30 35 16 19 1013.1 - 0.0
23/09:00am 26.5 26.3 24.3 88 1.5 SE 33 37 18 20 1013.0 1012.9 9.8
23/08:30am 26.1 25.9 24.3 90 1.2 SE 33 39 18 21 1012.9 - 9.8
23/08:00am 26.1 25.5 24.3 90 1.2 SE 35 41 19 22 1012.7 - 9.8
23/07:30am 25.9 24.8 24.1 90 1.2 SE 37 44 20 24 1012.4 - 9.8
23/07:00am 25.6 24.9 24.2 92 1.0 SE 35 39 19 21 1012.0 - 9.8
23/06:30am 25.4 23.6 24.2 93 0.8 SSE 41 48 22 26 1011.5 - 9.8
23/06:00am 25.2 23.3 24.0 93 0.8 SSE 41 46 22 25 1011.2 1011.1 9.6
23/05:30am 24.9 25.0 23.9 94 0.7 SSE 30 39 16 21 1011.0 - 8.8
23/05:00am 24.9 25.8 23.9 94 0.7 SSE 26 32 14 17 1011.1 - 6.0
23/04:30am 25.1 24.4 24.1 94 0.7 SSE 35 41 19 22 1011.2 - 4.8
23/04:00am 24.8 26.4 23.8 94 0.7 SSE 22 30 12 16 1011.1 - 4.2
23/03:30am 24.9 25.3 23.7 93 0.8 SE 28 35 15 19 1011.4 - 2.6
23/03:00am 25.4 24.9 23.5 89 1.3 SSE 32 37 17 20 1011.5 1011.4 0.4
23/02:30am 25.9 25.1 23.4 86 1.7 SSE 33 37 18 20 1011.7 - 0.2
23/02:00am 25.8 25.0 23.3 86 1.7 SSE 33 39 18 21 1012.1 - 0.2
23/01:30am 25.7 24.4 23.2 86 1.7 SSE 35 39 19 21 1012.5 - 0.2
23/01:00am 25.6 24.2 22.9 85 1.8 SSE 35 39 19 21 1012.7 - 0.2
23/12:30am 25.6 24.3 23.1 86 1.7 SSE 35 39 19 21 1013.1 - 0.2
23/12:00am 25.6 24.5 22.9 85 1.8 SSE 33 39 18 21 1013.5 1013.4 0.2
 
Date/Time
EST
Temp
°C
App
Temp
°C
Dew
Point
Rel
Hum
%
Delta-T
°C
Wind Press
QNH
hPa
Press
MSL
hPa
Rain
since 9 am
mm
Dir
 
Spd
km/h
Gust
km/h
Spd
kts
Gust
kts
22/11:30pm 25.6 24.1 22.7 84 2.0 SSE 35 39 19 21 1013.8 - 0.2
22/11:00pm 25.8 24.7 23.5 87 1.6 SSE 35 41 19 22 1013.9 - 0.2
22/10:30pm 25.8 24.6 23.3 86 1.7 SSE 35 41 19 22 1014.0 - 0.2
22/10:00pm 25.8 24.7 22.9 84 2.0 SSE 33 39 18 21 1014.2 - 0.2
22/09:30pm 25.9 24.9 23.0 84 2.0 SSE 33 37 18 20 1014.4 - 0.2
22/09:00pm 26.0 25.4 23.3 85 1.8 SSE 32 39 17 21 1014.4 1014.3 0.2
22/08:30pm 25.8 24.9 23.1 85 1.8 SSE 33 41 18 22 1014.3 - 0.2
22/08:00pm 25.9 24.3 22.6 82 2.2 SSE 35 43 19 23 1014.0 - 0.2
22/07:30pm 25.9 24.8 22.4 81 2.4 SSE 32 37 17 20 1013.7 - 0.2
22/07:00pm 26.1 24.7 23.0 83 2.1 SSE 35 39 19 21 1013.5 - 0.2
22/06:30pm 26.1 24.6 22.8 82 2.2 SSE 35 41 19 22 1013.3 - 0.2
22/06:00pm 26.1 24.6 22.8 82 2.2 SSE 35 39 19 21 1013.2 1013.1 0.2
22/05:30pm 26.2 24.5 22.5 80 2.5 SSE 35 39 19 21 1013.1 - 0.2
22/05:00pm 26.5 25.6 23.2 82 2.2 SSE 33 37 18 20 1012.9 - 0.2
22/04:30pm 26.4 26.9 23.3 83 2.1 SE 26 33 14 18 1012.5 - 0.2
22/04:00pm 26.4 26.2 22.7 80 2.5 SE 28 33 15 18 1012.6 - 0.2
22/03:30pm 26.5 27.2 23.0 81 2.4 SSE 24 32 13 17 1012.6 - 0.2
22/03:00pm 26.6 26.9 22.9 80 2.5 SSE 26 30 14 16 1012.7 1012.6 0.2
22/02:30pm 26.3 27.1 23.2 83 2.1 SSE 24 30 13 16 1013.0 - 0.2
22/02:00pm 26.5 26.6 23.2 82 2.2 SSE 28 32 15 17 1013.3 - 0.2
22/01:30pm 26.1 26.2 22.6 81 2.4 S 26 32 14 17 1013.6 - 0.2
22/01:00pm 25.7 25.8 22.6 83 2.1 SSE 26 28 14 15 1014.1 - 0.0
22/12:30pm 25.7 26.0 23.0 85 1.8 SSE 26 30 14 16 1014.5 - 0.0
22/12:00pm 25.4 24.4 22.7 85 1.8 SSE 32 35 17 19 1014.9 1014.8 0.0
22/11:30am 25.5 23.9 22.6 84 2.0 SSE 35 39 19 21 1015.3 - 0.0
22/11:00am 25.5 24.8 23.2 87 1.6 SSE 32 35 17 19 1015.6 - 0.0
22/10:30am 25.2 23.7 22.7 86 1.7 SSE 35 39 19 21 1015.8 - 0.0
22/10:00am 25.7 24.5 22.6 83 2.1 ESE 33 41 18 22 1015.8 - 0.0
22/09:30am 25.2 23.5 22.5 85 1.8 ESE 35 43 19 23 1015.7 - 0.0
22/09:00am 24.6 24.6 23.0 91 1.1 ESE 28 39 15 21 1015.7 1015.6 30.4
22/08:44am 24.7 23.6 22.9 90 1.2 E 33 39 18 21 1015.5 - 30.2
22/08:30am 24.9 23.2 23.1 90 1.2 SE 37 44 20 24 1015.2 - 30.2
22/08:00am 25.1 24.4 23.2 89 1.3 ESE 32 41 17 22 1015.0 - 30.2
22/07:30am 25.0 24.5 23.6 92 1.0 ESE 32 37 17 20 1014.5 - 30.2
22/07:00am 24.2 23.1 22.8 92 0.9 ESE 33 43 18 23 1014.4 - 30.2
22/06:30am 24.3 25.6 23.3 94 0.7 ESE 22 30 12 16 1014.1 - 30.2
22/06:00am 24.4 24.5 23.2 93 0.8 E 28 43 15 23 1013.9 1013.8 30.0
22/05:30am 24.8 24.2 23.4 92 1.0 SE 32 37 17 20 1013.6 - 29.0
22/05:00am 24.9 24.5 23.7 93 0.8 SSE 32 41 17 22 1013.5 - 28.8
22/04:30am 24.6 24.0 23.4 93 0.8 SE 32 37 17 20 1013.5 - 28.8
22/04:00am 23.5 20.6 22.3 93 0.8 SE 41 48 22 26 1013.6 - 28.8
22/03:30am 23.9 22.9 23.0 95 0.6 SE 33 39 18 21 1013.7 - 28.0
22/03:00am 23.8 22.2 22.6 93 0.8 ESE 35 44 19 24 1014.1 1014.0 25.6
22/02:30am 23.9 24.1 22.7 93 0.8 ESE 26 35 14 19 1014.1 - 25.0
22/02:11am 24.2 23.1 22.8 92 0.9 E 33 54 18 29 1014.1 - 24.4
22/02:00am 24.8 24.5 23.2 91 1.1 SE 30 35 16 19 1014.0 - 23.0
22/01:30am 24.2 22.2 22.5 90 1.1 SE 37 44 20 24 1014.1 - 23.0
22/01:00am 23.9 21.0 22.3 91 1.1 ESE 41 54 22 29 1014.3 - 23.0
22/12:54am 24.4 21.0 22.5 89 1.3 ESE 44 54 24 29 1014.4 - 22.8
22/12:30am 24.6 22.8 23.6 94 0.7 SSE 39 46 21 25 1014.6 - 22.8
22/12:00am 24.1 21.6 23.1 94 0.7 SE 41 48 22 26 1014.9 1014.8 22.6
 
Date/Time
EST
Temp
°C
App
Temp
°C
Dew
Point
Rel
Hum
%
Delta-T
°C
Wind Press
QNH
hPa
Press
MSL
hPa
Rain
since 9 am
mm
Dir
 
Spd
km/h
Gust
km/h
Spd
kts
Gust
kts
21/11:30pm 23.7 20.6 22.7 94 0.7 ESE 43 54 23 29 1015.0 - 22.6
21/11:00pm 24.0 21.0 22.8 93 0.8 ESE 43 52 23 28 1015.0 - 21.8
21/10:30pm 24.0 21.9 23.1 95 0.6 SE 39 46 21 25 1015.2 - 21.8
21/10:00pm 24.0 21.1 23.0 94 0.7 SE 43 50 23 27 1015.3 - 17.2
21/09:30pm 24.2 21.7 23.0 93 0.8 SE 41 56 22 30 1015.3 - 15.0
21/09:00pm 24.8 22.6 22.9 89 1.3 SE 39 50 21 27 1015.3 1015.2 10.4
21/08:30pm 24.7 22.8 22.8 89 1.3 SE 37 43 20 23 1015.0 - 10.4
21/08:16pm 25.0 23.6 23.6 92 1.0 SSE 37 41 20 22 1014.8 - 10.4
21/08:00pm 24.3 23.2 22.9 92 0.9 ESE 33 41 18 22 1014.7 - 10.4
21/07:30pm 24.1 23.0 22.9 93 0.8 ESE 33 43 18 23 1014.6 - 10.2
21/07:00pm 23.7 21.3 21.8 89 1.3 ESE 37 50 20 27 1014.2 - 8.4
21/06:30pm 24.2 21.8 22.6 91 1.1 ESE 39 48 21 26 1013.9 - 7.2
21/06:00pm 24.2 22.8 23.0 93 0.8 ESE 35 44 19 24 1013.7 1013.6 7.0
21/05:30pm 24.1 22.4 23.1 94 0.7 SE 37 44 20 24 1013.5 - 6.8
21/05:26pm 24.0 23.0 23.0 94 0.7 SE 33 39 18 21 1013.5 - 6.6
21/05:00pm 24.2 21.3 23.0 93 0.8 E 43 56 23 30 1013.3 - 5.4
21/04:30pm 23.9 21.3 22.2 90 1.1 E 39 50 21 27 1012.9 - 4.8
21/04:00pm 24.9 24.1 23.1 90 1.2 ESE 32 39 17 21 1012.6 - 4.4
21/03:37pm 25.5 24.8 23.2 87 1.6 E 32 52 17 28 1012.5 - 3.4
21/03:30pm 26.4 25.8 23.3 83 2.1 E 32 39 17 21 1012.6 - 2.4
21/03:00pm 26.5 25.0 22.8 80 2.5 SE 35 39 19 21 1012.4 1012.3 2.2
21/02:30pm 26.4 25.1 23.1 82 2.2 SE 35 43 19 23 1012.6 - 2.2
21/02:00pm 26.3 24.9 23.0 82 2.2 SE 35 43 19 23 1012.7 - 2.2
21/01:30pm 26.6 25.3 23.1 81 2.4 SE 35 41 19 22 1012.9 - 2.2
21/01:00pm 26.0 24.1 22.7 82 2.2 SE 37 46 20 25 1013.3 - 2.2
21/12:30pm 25.2 23.2 22.5 85 1.8 SE 37 52 20 28 1013.8 - 2.2
21/12:00pm 25.6 23.4 22.9 85 1.8 SE 39 46 21 25 1014.2 1014.1 2.2
21/11:30am 24.9 22.7 22.2 85 1.8 SE 37 43 20 23 1014.8 - 2.2
21/11:00am 24.2 22.6 22.6 91 1.1 SE 35 41 19 22 1015.3 - 2.2
21/10:49am 24.0 22.3 22.4 91 1.1 SE 35 41 19 22 1015.4 - 2.2
21/10:39am 24.1 20.3 22.4 90 1.1 ESE 46 54 25 29 1015.6 - 2.0
21/10:30am 24.4 22.6 23.0 92 0.9 SE 37 44 20 24 1015.6 - 2.0
21/10:00am 24.0 23.0 22.6 92 0.9 SE 32 44 17 24 1015.8 - 2.0
21/09:30am 24.1 21.7 22.5 91 1.1 SE 39 46 21 25 1015.5 - 1.0
21/09:04am 25.0 21.9 22.7 87 1.5 ESE 43 52 23 28 1015.3 - 0.2
21/09:00am 25.2 22.6 22.1 83 2.1 SSE 39 48 21 26 1015.2 1015.1 1.4
21/08:30am 24.6 22.8 22.3 87 1.5 SE 35 46 19 25 1015.1 - 1.4
21/08:00am 25.8 23.2 22.1 80 2.5 SE 39 46 21 25 1014.8 - 0.6
21/07:30am 25.4 22.5 21.5 79 2.6 SE 39 48 21 26 1014.3 - 0.6
21/07:00am 24.7 23.5 22.2 86 1.7 SE 32 37 17 20 1014.3 - 0.6
21/06:48am 26.0 23.7 22.7 82 2.2 E 39 52 21 28 1014.1 - 0.2
21/06:30am 26.1 24.6 22.0 78 2.7 SE 33 43 18 23 1013.8 - 0.2
21/06:00am 26.4 23.3 21.2 73 3.4 SE 39 50 21 27 1013.4 1013.3 0.2
21/05:30am 26.5 24.7 21.5 74 3.3 SE 33 41 18 22 1013.2 - 0.2
21/05:00am 26.5 24.3 21.5 74 3.3 SE 35 43 19 23 1013.1 - 0.2
21/04:30am 26.5 24.0 20.8 71 3.8 SE 35 44 19 24 1012.9 - 0.2
21/04:00am 26.4 24.3 20.9 72 3.6 SE 33 46 18 25 1012.8 - 0.2
21/03:30am 26.4 24.5 21.4 74 3.3 SE 33 46 18 25 1012.6 - 0.2
21/03:00am 26.3 24.3 21.1 73 3.4 SE 33 41 18 22 1012.8 1012.7 0.2
21/02:30am 25.9 23.6 20.5 72 3.5 ESE 33 43 18 23 1012.8 - 0.2
21/02:00am 25.7 24.0 21.4 77 2.8 SSE 32 35 17 19 1012.9 - 0.2
21/01:30am 26.0 24.3 21.7 77 2.9 SSE 33 37 18 20 1013.0 - 0.2
21/01:00am 26.0 23.8 21.4 76 3.1 SSE 35 41 19 22 1013.5 - 0.2
21/12:30am 26.1 24.5 21.5 76 3.1 SSE 32 35 17 19 1014.0 - 0.2
21/12:00am 26.1 24.3 21.1 74 3.3 SSE 32 35 17 19 1014.2 1014.1 0.2
 
Date/Time
EST
Temp
°C
App
Temp
°C
Dew
Point
Rel
Hum
%
Delta-T
°C
Wind Press
QNH
hPa
Press
MSL
hPa
Rain
since 9 am
mm
Dir
 
Spd
km/h
Gust
km/h
Spd
kts
Gust
kts
20/11:30pm 26.1 24.2 20.9 73 3.4 SSE 32 37 17 20 1014.5 - 0.2
20/11:00pm 26.1 24.6 20.9 73 3.4 SSE 30 35 16 19 1014.6 - 0.2

Other Formats:

Comma delimited format used in spreadsheet applications
http://www.bom.gov.au/fwo/IDQ60801/IDQ60801.94285.axf

JavaScript Object Notation format (JSON) in row-major order
http://www.bom.gov.au/fwo/IDQ60801/IDQ60801.94285.json